2008 SINLAKU (2008252N16128)


On this page: IBTrACS data - Map and Plots - Positions - Intensities - Original source data

Summary

Start Sep 7
End Sep 23
Basin WP
LMI 125 kt
Sources jtwc_wp
tokyo
cma
hko
In WMO? Yes
Previous storm 2008 LOWELL (EP)
Previous in basin 2008 FOURTEEN (WP)
Concurrent storms 2008 HANNA (NA)
2008 IKE (NA)
2008 JOSEPHINE (NA)
2008 LOWELL (EP)
2008 SINLAKU (WP)
2008 SIXTEEN (WP)
2008 SEVENTEEN (WP)
2008 TWO (NI)
2008 HAGUPIT (WP)
2008 JANGMI (WP)
Next in basin 2008 SIXTEEN (WP)
Next storm 2008 SIXTEEN (WP)

top of page IBTrACS Data: File Access

top of page HURSAT Data: File Access

Image of storm

top of page Plots:

Map of storm track will not appear if FTP is down
Time series of cyclone Maximum Sustained Wind will not appear if FTP is down
Time series of cyclone Minimum Central Pressure will not appear if FTP is down

top of page Track Data:Position

jtwc_wp tokyo cma hko
Date Lat Lon Lat Lon Lat Lon Lat Lon
2008-09-07 12:00:00 15.8 127.6
2008-09-07 18:00:00 15.9 127.2
2008-09-08 00:00:00 15.9 126.8 15.4 126.6 15.4 126.7
2008-09-08 06:00:00 16.0 126.2 15.8 126.3 15.9 126.3 15.6 126.4
2008-09-08 12:00:00 16.3 125.8 16.2 125.9 16.3 126.0 16.3 126.1
2008-09-08 18:00:00 16.8 125.7 16.7 125.7 16.7 125.7 16.7 125.8
2008-09-09 00:00:00 17.2 125.3 17.3 125.5 17.2 125.5 17.3 125.5
2008-09-09 06:00:00 17.9 125.2 17.8 125.2 17.8 125.2 17.7 125.2
2008-09-09 12:00:00 18.6 125.2 18.5 125.1 18.6 125.1 18.6 125.1
2008-09-09 18:00:00 19.3 124.7 19.1 124.9 19.3 124.9 19.3 124.9
2008-09-10 00:00:00 19.8 124.4 19.8 124.4 19.8 124.4 19.8 124.4
2008-09-10 06:00:00 20.2 124.3 20.2 124.2 20.2 124.3 20.3 124.2
2008-09-10 12:00:00 20.6 124.3 20.6 124.3 20.7 124.3 20.7 124.3
2008-09-10 18:00:00 20.8 124.3 20.8 124.2 20.7 124.3 20.8 124.3
2008-09-11 00:00:00 21.0 124.6 20.9 124.4 20.9 124.5 21.0 124.5
2008-09-11 06:00:00 21.6 124.8 21.5 124.6 21.5 124.7 21.6 124.7
2008-09-11 12:00:00 21.9 124.8 22.0 124.8 21.9 124.8 22.0 124.7
2008-09-11 18:00:00 22.2 124.7 22.3 124.8 22.3 124.7 22.4 124.6
2008-09-12 00:00:00 22.8 124.6 22.8 124.5 22.8 124.5 22.8 124.5
2008-09-12 06:00:00 23.4 124.1 23.4 124.0 23.4 124.0 23.4 124.0
2008-09-12 12:00:00 23.7 123.6 23.6 123.5 23.7 123.5 23.6 123.5
2008-09-12 18:00:00 23.9 123.1 23.8 123.1 23.9 123.2 23.9 123.2
2008-09-13 00:00:00 24.1 122.8 24.1 122.8 24.1 122.8 24.1 122.8
2008-09-13 06:00:00 24.3 122.6 24.3 122.5 24.3 122.5 24.3 122.5
2008-09-13 12:00:00 24.5 122.4 24.5 122.4 24.4 122.4 24.5 122.4
jtwc_wp tokyo cma hko
2008-09-13 18:00:00 24.7 121.8 24.7 121.9 24.7 121.8 24.7 121.9
2008-09-14 00:00:00 24.6 121.9 24.7 121.8 24.6 121.7 24.7 121.8
2008-09-14 06:00:00 25.0 121.3 25.3 121.3 25.5 121.6 25.4 121.4
2008-09-14 12:00:00 25.4 121.0 25.3 120.9 25.4 121.3 25.6 121.3
2008-09-14 18:00:00 25.9 121.0 25.7 120.9 25.9 120.9 25.9 120.9
2008-09-15 00:00:00 26.4 121.3 26.2 121.2 26.2 121.3 26.2 121.0
2008-09-15 06:00:00 26.7 121.9 26.7 121.7 26.6 121.9 26.7 121.7
2008-09-15 12:00:00 27.0 122.5 26.9 122.4 26.9 122.5 26.9 122.4
2008-09-15 18:00:00 27.1 123.1 27.0 123.1 26.9 123.1 27.1 123.2
2008-09-16 00:00:00 27.2 123.5 27.1 123.5 27.0 123.8 27.1 123.5
2008-09-16 06:00:00 27.1 123.8 27.2 124.2 27.1 124.2 27.1 123.9
2008-09-16 12:00:00 27.2 124.4 27.2 124.8 27.2 124.7 27.2 124.8
2008-09-16 18:00:00 27.2 125.1 27.2 125.4 27.3 125.4 27.3 125.3
2008-09-17 00:00:00 27.5 125.9 27.3 126.2 27.5 126.0 27.3 126.0
2008-09-17 06:00:00 28.1 127.0 27.9 127.1 28.0 126.7 28.1 127.0
2008-09-17 12:00:00 28.8 128.0 28.6 127.8 28.8 127.8 28.7 127.8
2008-09-17 18:00:00 29.6 128.6 29.4 128.4 29.4 128.8 29.4 128.7
2008-09-18 00:00:00 29.9 129.5 30.0 129.0 30.0 129.4 30.0 129.3
2008-09-18 06:00:00 30.5 130.5 30.5 130.5 30.5 130.5 30.6 130.5
2008-09-18 12:00:00 31.0 131.6 30.8 131.5 30.9 131.5 30.9 131.5
2008-09-18 18:00:00 31.7 132.8 31.8 132.6 31.6 132.8 31.8 132.8
2008-09-19 00:00:00 32.4 134.2 32.5 134.1 32.5 134.1 32.6 134.1
2008-09-19 06:00:00 33.2 136.0 33.1 135.7 33.1 135.7 33.1 135.7
2008-09-19 12:00:00 33.9 137.8 33.8 137.9 33.8 138.1 33.8 137.9
jtwc_wp tokyo cma hko
2008-09-19 18:00:00 34.4 139.8 34.3 139.8 34.4 139.8 34.3 139.8
2008-09-20 00:00:00 34.9 142.1 34.9 142.1 34.9 142.1 34.9 142.1
2008-09-20 06:00:00 35.3 144.6 35.1 144.7 35.0 144.7 35.1 144.7
2008-09-20 12:00:00 35.3 147.3 35.2 147.1 35.1 147.2 35.2 147.1
2008-09-20 18:00:00 35.3 150.0 35.1 149.9 35.1 149.9 35.1 149.9
2008-09-21 00:00:00 35.0 152.8 35.0 152.8 35.0 152.8
2008-09-21 06:00:00 34.7 155.8 35.0 155.0 34.8 155.2
2008-09-21 12:00:00 35.0 157.7 34.6 157.7
2008-09-21 18:00:00 34.8 160.2 34.4 160.2
2008-09-22 00:00:00 34.2 162.1
2008-09-22 06:00:00 33.7 163.6
2008-09-22 12:00:00 33.4 164.7
2008-09-22 18:00:00 33.3 165.6
2008-09-23 00:00:00 33.4 166.6
2008-09-23 06:00:00 33.7 167.9
2008-09-23 12:00:00 34.3 169.7

top of pageTrack Data:Intensity

jtwc_wp tokyo cma hko
Date Wind Pres Wind Pres Wind Pres Wind Pres
2008-09-07 12:00:00 20. 1007.
2008-09-07 18:00:00 20. 1007.
2008-09-08 00:00:00 25. 1004. 1004. 29. 1002.
2008-09-08 06:00:00 30. 1000. 1002. 29. 1000. 25. 1001.
2008-09-08 12:00:00 35. 996. 1002. 29. 1000. 30. 998.
2008-09-08 18:00:00 45. 989. 35. 996. 35. 996. 35. 992.
2008-09-09 00:00:00 50. 985. 45. 990. 45. 990. 45. 988.
2008-09-09 06:00:00 65. 974. 55. 985. 54. 985. 55. 980.
2008-09-09 12:00:00 70. 970. 65. 975. 64. 975. 65. 970.
2008-09-09 18:00:00 90. 956. 70. 970. 78. 965. 70. 965.
2008-09-10 00:00:00 90. 956. 80. 965. 78. 960. 75. 960.
2008-09-10 06:00:00 115. 937. 90. 945. 87. 950. 85. 950.
2008-09-10 12:00:00 120. 933. 100. 935. 97. 940. 95. 940.
2008-09-10 18:00:00 125. 929. 100. 935. 107. 935. 95. 940.
2008-09-11 00:00:00 125. 929. 100. 935. 107. 935. 95. 940.
2008-09-11 06:00:00 120. 933. 100. 935. 107. 935. 95. 940.
2008-09-11 12:00:00 120. 933. 100. 935. 107. 935. 95. 940.
2008-09-11 18:00:00 115. 937. 95. 940. 97. 940. 95. 940.
2008-09-12 00:00:00 115. 937. 95. 940. 97. 940. 95. 940.
2008-09-12 06:00:00 115. 937. 95. 940. 97. 940. 95. 940.
2008-09-12 12:00:00 115. 937. 90. 945. 97. 945. 90. 945.
2008-09-12 18:00:00 100. 948. 90. 945. 97. 945. 90. 945.
2008-09-13 00:00:00 100. 948. 90. 945. 97. 945. 90. 945.
2008-09-13 06:00:00 100. 948. 90. 945. 93. 945. 90. 945.
2008-09-13 12:00:00 100. 948. 90. 950. 93. 945. 90. 945.
jtwc_wp tokyo cma hko
2008-09-13 18:00:00 90. 956. 80. 960. 87. 950. 85. 950.
2008-09-14 00:00:00 90. 956. 65. 975. 78. 960. 70. 965.
2008-09-14 06:00:00 75. 967. 60. 985. 68. 970. 65. 970.
2008-09-14 12:00:00 65. 974. 60. 985. 64. 975. 65. 970.
2008-09-14 18:00:00 65. 974. 55. 985. 64. 975. 60. 975.
2008-09-15 00:00:00 60. 978. 50. 985. 58. 980. 55. 980.
2008-09-15 06:00:00 60. 978. 50. 985. 58. 980. 55. 980.
2008-09-15 12:00:00 60. 978. 50. 985. 58. 980. 55. 980.
2008-09-15 18:00:00 55. 982. 50. 985. 54. 985. 55. 980.
2008-09-16 00:00:00 45. 989. 45. 990. 49. 990. 50. 985.
2008-09-16 06:00:00 40. 993. 40. 992. 45. 990. 40. 992.
2008-09-16 12:00:00 40. 993. 40. 992. 35. 995. 35. 994.
2008-09-16 18:00:00 40. 993. 40. 992. 35. 995. 35. 994.
2008-09-17 00:00:00 35. 996. 45. 990. 39. 995. 40. 990.
2008-09-17 06:00:00 40. 993. 45. 990. 45. 990. 40. 990.
2008-09-17 12:00:00 45. 989. 50. 985. 49. 990. 45. 988.
2008-09-17 18:00:00 50. 985. 50. 985. 49. 990. 50. 985.
2008-09-18 00:00:00 60. 978. 50. 985. 49. 990. 50. 985.
2008-09-18 06:00:00 55. 982. 60. 980. 54. 985. 55. 980.
2008-09-18 12:00:00 50. 985. 60. 985. 58. 980. 55. 985.
2008-09-18 18:00:00 55. 982. 60. 985. 58. 980. 55. 985.
2008-09-19 00:00:00 65. 974. 65. 980. 58. 980. 65. 980.
2008-09-19 06:00:00 70. 970. 65. 980. 58. 980. 65. 980.
2008-09-19 12:00:00 60. 978. 65. 985. 58. 980. 65. 985.
jtwc_wp tokyo cma hko
2008-09-19 18:00:00 50. 985. 65. 985. 58. 980. 65. 985.
2008-09-20 00:00:00 50. 985. 55. 990. 54. 985. 55. 990.
2008-09-20 06:00:00 55. 982. 55. 992. 54. 985. 55. 992.
2008-09-20 12:00:00 45. 989. 50. 992. 45. 990. 50. 992.
2008-09-20 18:00:00 40. 993. 45. 994. 45. 994. 45. 994.
2008-09-21 00:00:00 35. 996. 996. 39. 996.
2008-09-21 06:00:00 35. 996. 1000. 35. 1000.
2008-09-21 12:00:00 1000. 35. 1000.
2008-09-21 18:00:00 1000. 29. 1000.
2008-09-22 00:00:00 1002.
2008-09-22 06:00:00 1002.
2008-09-22 12:00:00 1004.
2008-09-22 18:00:00 1006.
2008-09-23 00:00:00 1006.
2008-09-23 06:00:00 1006.
2008-09-23 12:00:00 1008.

top of page Links to source data

Source Source file Format
jtwc_wp bwp152008.txt ATCF
tokyo bst_all.txt:Line=57485:SINLAKU:813 JMA text table
cma CH2008BST.txt:Storm=15:Sinlaku CMA text table
hko tc-besttrack-data.txt:Line=33274:SINLAKU HKO Text table